Pitt Greenville Airport Greenville US
ICAO: KPGV
IATA: PGV
Category: Medium
Scheduled Services: No

Elevation: 26 ft
TransAlt. 18000 ft.

Airport Communications:
AWOS 3:128.425
CLNC DEL:122.35
WASHINGTON CNTR:135.5
CTAF/UNICOM:122.8

KPGV Zoom In..

If you have problems with the map follow the link
https://www.worldairports.se/pages/airport.php?
ICAO=KPGV

Runways:

(A) RW 02 length 6505 ft width 150 ft
---- / hdg 17

(B) RW 08 length 4997 ft width 150 ft
---- / hdg 76

(C) RW 15 length 2687 ft width 150 ft
---- / hdg 137

(D) RW 20 length 6505 ft width 150 ft
ILS 110.70 / hdg 197

(E) RW 26 length 4997 ft width 150 ft
---- / hdg 256

(F) RW 33 length 2687 ft width 150 ft
---- / hdg 317

Location; KPGV
Day. 21 / Time. 18.25 Zulu
* Altimeter: 30.16
* Temperature: 15° c. 59°f.
* Wind from: 360° Speed 13 kn with Gusts up to 20 kn.
Dewpoint: 00° c.
Visibility: 10 Statute Miles.
Clouds: Clear (automated report).

KPGV 211825Z AUTO 36013G20KT 10SM CLR 15/00 A3016 RMK AO2


Wind From 360°
Speed 13 kn.

 
 
jpsmedia.com for Web Design worldairports.se 2018   terms of use